createdAt,value
2018-07-21T00:00:13.103Z,7.83
2018-07-21T00:02:16.688Z,8.20
2018-07-21T00:04:20.183Z,8.20
2018-07-21T00:06:23.685Z,7.60
2018-07-21T00:08:27.232Z,9.90
2018-07-21T00:10:30.792Z,8.93
2018-07-21T00:12:34.391Z,7.73
2018-07-21T00:14:37.877Z,8.00
2018-07-21T00:16:41.420Z,8.57
2018-07-21T00:18:44.948Z,8.33
2018-07-21T00:20:48.139Z,8.53
2018-07-21T00:22:51.670Z,8.43
2018-07-21T00:24:55.179Z,8.40
2018-07-21T00:26:58.706Z,8.93
2018-07-21T00:29:02.219Z,10.00
2018-07-21T00:31:05.767Z,10.05
2018-07-21T00:33:09.405Z,9.20
2018-07-21T00:35:12.965Z,9.77
2018-07-21T00:37:16.476Z,8.50
2018-07-21T00:39:20.011Z,10.13
2018-07-21T00:41:23.513Z,11.43
2018-07-21T00:43:27.125Z,9.37
2018-07-21T00:45:30.864Z,11.10
2018-07-21T00:47:34.640Z,9.87
2018-07-21T00:49:38.198Z,8.97
2018-07-21T00:51:41.900Z,16.90
2018-07-21T00:53:45.433Z,8.70
2018-07-21T00:55:48.916Z,11.37
2018-07-21T00:57:52.482Z,9.73
2018-07-21T00:59:56.049Z,9.20
2018-07-21T01:01:59.624Z,13.00
2018-07-21T01:04:03.173Z,10.23
2018-07-21T01:06:06.780Z,10.10
2018-07-21T01:08:10.255Z,8.47
2018-07-21T01:10:13.760Z,10.77
2018-07-21T01:12:17.270Z,9.80
2018-07-21T01:14:20.875Z,9.37
2018-07-21T01:16:24.612Z,11.20
2018-07-21T01:18:28.122Z,9.20
2018-07-21T01:20:31.668Z,9.40
2018-07-21T01:22:35.276Z,9.20
2018-07-21T01:24:38.766Z,11.80
2018-07-21T01:26:42.351Z,8.97
2018-07-21T01:28:45.912Z,10.13
2018-07-21T01:30:49.419Z,10.30
2018-07-21T01:32:53.020Z,9.43
2018-07-21T01:34:56.640Z,12.53
2018-07-21T01:37:00.140Z,10.03
2018-07-21T01:39:04.438Z,9.67
2018-07-21T01:41:07.638Z,9.87
2018-07-21T01:43:17.700Z,10.23
2018-07-21T01:45:21.264Z,9.80
2018-07-21T01:47:24.782Z,11.30
2018-07-21T01:49:28.320Z,9.13
2018-07-21T01:51:32.043Z,9.40
2018-07-21T01:53:35.567Z,9.87
2018-07-21T01:55:39.310Z,9.47
2018-07-21T01:57:42.856Z,10.33
2018-07-21T01:59:46.023Z,9.50
2018-07-21T02:01:49.610Z,11.80
2018-07-21T02:03:53.159Z,9.83
2018-07-21T02:05:56.720Z,10.33
2018-07-21T02:08:00.219Z,10.87
2018-07-21T02:10:03.828Z,10.87
2018-07-21T02:12:07.494Z,12.53
2018-07-21T02:14:11.010Z,12.23
2018-07-21T02:16:14.526Z,11.37
2018-07-21T02:18:18.050Z,11.20
2018-07-21T02:20:21.546Z,13.60
2018-07-21T02:22:25.121Z,12.83
2018-07-21T02:24:28.672Z,12.97
2018-07-21T02:26:32.133Z,12.90
2018-07-21T02:28:35.626Z,12.37
2018-07-21T02:30:39.225Z,12.00
2018-07-21T02:32:42.922Z,11.40
2018-07-21T02:34:46.428Z,13.50
2018-07-21T02:36:50.009Z,12.50
2018-07-21T02:38:53.695Z,12.53
2018-07-21T02:40:57.261Z,12.10
2018-07-21T02:43:00.784Z,11.80
2018-07-21T02:45:04.043Z,11.90
2018-07-21T02:47:07.579Z,12.87
2018-07-21T02:49:11.095Z,13.30
2018-07-21T02:51:14.604Z,14.90
2018-07-21T02:53:18.117Z,12.27
2018-07-21T02:55:21.638Z,12.20
2018-07-21T02:57:25.145Z,12.37
2018-07-21T02:59:28.355Z,11.67
2018-07-21T03:01:31.934Z,11.87
2018-07-21T03:03:35.114Z,13.07
2018-07-21T03:05:38.627Z,14.67
2018-07-21T03:07:42.120Z,13.27
2018-07-21T03:09:45.671Z,12.27
2018-07-21T03:11:49.271Z,15.63
2018-07-21T03:13:52.889Z,13.60
2018-07-21T03:15:56.414Z,11.97
2018-07-21T03:17:59.914Z,12.37
2018-07-21T03:20:03.604Z,12.43
2018-07-21T03:22:07.123Z,12.67
2018-07-21T03:24:10.714Z,12.67
2018-07-21T03:26:14.286Z,12.63
2018-07-21T03:28:17.773Z,14.23
2018-07-21T03:30:20.960Z,12.37
2018-07-21T03:32:24.495Z,13.77
2018-07-21T03:34:28.008Z,12.37
2018-07-21T03:36:31.643Z,11.97
2018-07-21T03:38:35.141Z,12.87
2018-07-21T03:40:38.719Z,11.60
2018-07-21T03:42:42.151Z,11.70
2018-07-21T03:44:45.662Z,10.20
2018-07-21T03:46:49.171Z,10.23
2018-07-21T03:48:52.656Z,12.47
2018-07-21T03:50:56.177Z,12.47
2018-07-21T03:52:59.723Z,10.10
2018-07-21T03:55:03.309Z,10.63
2018-07-21T03:57:06.854Z,10.93
2018-07-21T03:59:10.485Z,11.60
2018-07-21T04:01:14.085Z,9.57
2018-07-21T04:03:17.558Z,10.23
2018-07-21T04:05:21.136Z,9.10
2018-07-21T04:07:24.636Z,10.53
2018-07-21T04:09:28.120Z,9.40
2018-07-21T04:11:31.598Z,8.97
2018-07-21T04:13:35.079Z,10.57
2018-07-21T04:15:38.790Z,8.67
2018-07-21T04:17:42.244Z,10.70
2018-07-21T04:19:45.755Z,9.80
2018-07-21T04:21:49.278Z,8.63
2018-07-21T04:23:52.757Z,12.27
2018-07-21T04:25:56.329Z,8.57
2018-07-21T04:27:59.855Z,8.97
2018-07-21T04:30:03.467Z,8.80
2018-07-21T04:32:07.050Z,10.87
2018-07-21T04:34:10.720Z,10.40
2018-07-21T04:36:14.271Z,10.63
2018-07-21T04:38:17.759Z,10.33
2018-07-21T04:40:21.247Z,14.23
2018-07-21T04:42:24.740Z,9.47
2018-07-21T04:44:28.187Z,11.37
2018-07-21T04:46:31.755Z,9.33
2018-07-21T04:48:35.231Z,8.93
2018-07-21T04:50:38.775Z,10.43
2018-07-21T04:52:42.326Z,11.23
2018-07-21T04:54:45.802Z,8.90
2018-07-21T04:56:49.349Z,8.57
2018-07-21T04:58:52.923Z,10.80
2018-07-21T05:00:56.610Z,8.97
2018-07-21T05:03:00.020Z,8.20
2018-07-21T05:05:03.660Z,9.47
2018-07-21T05:07:07.198Z,7.27
2018-07-21T05:09:12.179Z,8.23
2018-07-21T05:11:15.695Z,7.30
2018-07-21T05:13:19.313Z,6.53
2018-07-21T05:15:22.940Z,8.50
2018-07-21T05:17:26.450Z,6.23
2018-07-21T05:19:29.943Z,7.37
2018-07-21T05:21:33.478Z,7.03
2018-07-21T05:23:36.979Z,6.00
2018-07-21T05:25:40.500Z,6.83
2018-07-21T05:27:44.079Z,9.37
2018-07-21T05:29:47.626Z,7.90
2018-07-21T05:31:51.198Z,6.97
2018-07-21T05:33:54.677Z,7.37
2018-07-21T05:35:58.194Z,5.30
2018-07-21T05:38:01.683Z,5.93
2018-07-21T05:40:05.344Z,5.27
2018-07-21T05:42:09.002Z,5.63
2018-07-21T05:44:12.492Z,5.50
2018-07-21T05:46:16.037Z,5.70
2018-07-21T05:48:19.531Z,7.53
2018-07-21T05:50:23.047Z,5.23
2018-07-21T05:52:26.588Z,6.90
2018-07-21T05:54:30.158Z,6.97
2018-07-21T05:56:33.748Z,5.30
2018-07-21T05:58:37.235Z,7.33
2018-07-21T06:00:40.795Z,7.53
2018-07-21T06:02:44.331Z,5.63
2018-07-21T06:04:47.800Z,4.73
2018-07-21T06:06:51.300Z,6.70
2018-07-21T06:08:54.839Z,6.37
2018-07-21T06:10:58.475Z,5.43
2018-07-21T06:13:01.931Z,6.47
2018-07-21T06:15:06.142Z,6.03
2018-07-21T06:17:10.043Z,5.87
2018-07-21T06:19:13.523Z,6.03
2018-07-21T06:21:17.063Z,5.90
2018-07-21T06:23:20.531Z,8.00
2018-07-21T06:25:24.081Z,7.10
2018-07-21T06:27:27.683Z,6.03
2018-07-21T06:29:31.259Z,8.20
2018-07-21T06:31:34.758Z,7.57
2018-07-21T06:33:38.219Z,6.40
2018-07-21T06:35:41.763Z,6.67
2018-07-21T06:37:45.350Z,6.93
2018-07-21T06:39:48.850Z,6.80
2018-07-21T06:41:52.476Z,9.00
2018-07-21T06:43:55.965Z,9.37
2018-07-21T06:45:59.638Z,6.67
2018-07-21T06:48:03.146Z,6.40
2018-07-21T06:50:07.243Z,7.43
2018-07-21T06:52:10.866Z,7.03
2018-07-21T06:54:14.332Z,8.00
2018-07-21T06:56:17.824Z,8.10
2018-07-21T06:58:21.330Z,6.47
2018-07-21T07:00:25.003Z,7.23
2018-07-21T07:02:28.512Z,7.67
2018-07-21T07:04:32.116Z,6.20
2018-07-21T07:06:35.532Z,7.70
2018-07-21T07:08:39.039Z,6.20
2018-07-21T07:10:42.566Z,6.53
2018-07-21T07:12:46.177Z,6.27
2018-07-21T07:14:49.670Z,7.73
2018-07-21T07:16:53.372Z,6.63
2018-07-21T07:18:56.858Z,7.10
2018-07-21T07:21:00.443Z,8.20
2018-07-21T07:23:03.984Z,7.23
2018-07-21T07:25:07.500Z,6.27
2018-07-21T07:27:11.001Z,8.23
2018-07-21T07:29:14.491Z,7.10
2018-07-21T07:31:17.759Z,6.60
2018-07-21T07:33:21.470Z,7.20
2018-07-21T07:35:25.071Z,6.67
2018-07-21T07:37:28.614Z,7.80
2018-07-21T07:39:32.187Z,6.17
2018-07-21T07:41:35.737Z,5.50
2018-07-21T07:43:39.260Z,4.97
2018-07-21T07:45:42.855Z,5.83
2018-07-21T07:47:46.415Z,6.53
2018-07-21T07:49:49.871Z,6.47
2018-07-21T07:51:53.385Z,5.30
2018-07-21T07:53:56.962Z,5.33
2018-07-21T07:56:00.479Z,4.67
2018-07-21T07:58:04.900Z,5.97
2018-07-21T08:00:08.467Z,7.50
2018-07-21T08:02:12.106Z,5.50
2018-07-21T08:04:15.707Z,6.07
2018-07-21T08:06:19.258Z,6.57
2018-07-21T08:08:22.812Z,5.53
2018-07-21T08:10:26.621Z,5.30
2018-07-21T08:12:30.115Z,5.67
2018-07-21T08:14:33.675Z,6.57
2018-07-21T08:16:37.274Z,5.83
2018-07-21T08:18:40.791Z,5.40
2018-07-21T08:20:44.387Z,5.43
2018-07-21T08:22:47.999Z,7.00
2018-07-21T08:24:51.555Z,6.80
2018-07-21T08:26:55.084Z,5.73
2018-07-21T08:28:58.643Z,8.00
2018-07-21T08:31:03.780Z,5.80
2018-07-21T08:33:07.428Z,6.27
2018-07-21T08:35:10.925Z,5.90
2018-07-21T08:37:14.437Z,6.03
2018-07-21T08:39:18.072Z,6.03
2018-07-21T08:41:21.607Z,5.47
2018-07-21T08:43:25.123Z,6.27
2018-07-21T08:45:28.676Z,6.93
2018-07-21T08:47:32.388Z,5.73
2018-07-21T08:49:35.963Z,6.47
2018-07-21T08:51:39.527Z,7.13
2018-07-21T08:53:43.181Z,6.53
2018-07-21T08:55:46.684Z,6.20
2018-07-21T08:57:50.246Z,6.20
2018-07-21T08:59:53.790Z,6.33
2018-07-21T09:01:57.343Z,8.27
2018-07-21T09:04:00.859Z,6.73
2018-07-21T09:06:04.403Z,6.77
2018-07-21T09:08:07.810Z,8.73
2018-07-21T09:10:11.308Z,6.57
2018-07-21T09:12:14.896Z,6.83
2018-07-21T09:14:18.531Z,6.17
2018-07-21T09:16:22.016Z,7.47
2018-07-21T09:18:25.596Z,6.90
2018-07-21T09:20:30.017Z,7.97
2018-07-21T09:22:33.505Z,6.90
2018-07-21T09:24:37.038Z,7.03
2018-07-21T09:26:40.519Z,6.97
2018-07-21T09:28:44.022Z,8.27
2018-07-21T09:30:48.059Z,6.57
2018-07-21T09:32:51.606Z,6.33
2018-07-21T09:34:55.163Z,8.30
2018-07-21T09:36:58.763Z,6.73
2018-07-21T09:39:02.355Z,7.37
2018-07-21T09:41:05.940Z,6.80
2018-07-21T09:43:09.778Z,6.20
2018-07-21T09:45:13.282Z,6.90
2018-07-21T09:47:16.791Z,8.43
2018-07-21T09:49:20.300Z,5.77
2018-07-21T09:51:23.831Z,10.10
2018-07-21T09:53:27.344Z,6.63
2018-07-21T09:55:30.895Z,5.97
2018-07-21T09:57:34.403Z,6.63
2018-07-21T09:59:38.017Z,6.97
2018-07-21T10:01:41.581Z,6.00
2018-07-21T10:03:45.083Z,6.23
2018-07-21T10:05:48.560Z,5.90
2018-07-21T10:07:52.095Z,6.10
2018-07-21T10:09:55.603Z,6.07
2018-07-21T10:11:59.147Z,7.90
2018-07-21T10:14:02.756Z,5.90
2018-07-21T10:16:06.310Z,7.30
2018-07-21T10:18:09.642Z,5.90
2018-07-21T10:20:13.191Z,6.13
2018-07-21T10:22:16.699Z,6.37
2018-07-21T10:24:25.486Z,6.67
2018-07-21T10:26:34.288Z,5.47
2018-07-21T10:28:43.244Z,5.97
2018-07-21T10:30:46.735Z,6.03
2018-07-21T10:32:50.196Z,5.60
2018-07-21T10:34:53.709Z,6.23
2018-07-21T10:36:57.215Z,6.57
2018-07-21T10:39:00.778Z,5.73
2018-07-21T10:41:04.315Z,5.00
2018-07-21T10:43:07.922Z,6.43
2018-07-21T10:45:11.433Z,5.90
2018-07-21T10:47:14.921Z,5.07
2018-07-21T10:49:18.513Z,5.70
2018-07-21T10:51:22.165Z,6.37
2018-07-21T10:53:25.661Z,5.30
2018-07-21T10:55:29.169Z,5.57
2018-07-21T10:57:32.663Z,5.73
2018-07-21T10:59:39.004Z,5.45
2018-07-21T11:01:42.575Z,5.60
2018-07-21T11:03:46.065Z,6.07
2018-07-21T11:05:49.670Z,4.90
2018-07-21T11:07:53.303Z,5.27
2018-07-21T11:09:56.819Z,4.93
2018-07-21T11:12:00.330Z,5.47
2018-07-21T11:14:03.892Z,5.10
2018-07-21T11:16:07.536Z,5.27
2018-07-21T11:18:11.078Z,4.93
2018-07-21T11:20:14.642Z,6.03
2018-07-21T11:22:18.307Z,5.23
2018-07-21T11:24:21.923Z,5.03
2018-07-21T11:26:25.485Z,5.37
2018-07-21T11:28:29.064Z,5.50
2018-07-21T11:30:32.852Z,4.93
2018-07-21T11:32:36.697Z,5.17
2018-07-21T11:34:40.240Z,5.93
2018-07-21T11:36:43.715Z,4.93
2018-07-21T11:38:47.219Z,7.27
2018-07-21T11:40:50.733Z,5.33
2018-07-21T11:42:54.387Z,5.67
2018-07-21T11:44:57.907Z,5.27
2018-07-21T11:47:01.371Z,4.90
2018-07-21T11:49:05.234Z,5.87
2018-07-21T11:51:08.731Z,12.40
2018-07-21T11:53:12.365Z,5.57
2018-07-21T11:55:15.960Z,5.47
2018-07-21T11:57:19.459Z,7.37
2018-07-21T11:59:23.036Z,5.50
2018-07-21T12:01:26.567Z,5.80
2018-07-21T12:03:30.113Z,5.97
2018-07-21T12:05:33.706Z,6.30
2018-07-21T12:07:37.154Z,6.00
2018-07-21T12:09:40.695Z,6.40
2018-07-21T12:11:44.272Z,6.23
2018-07-21T12:13:47.737Z,6.60
2018-07-21T12:15:51.303Z,6.37
2018-07-21T12:17:54.801Z,6.27
2018-07-21T12:19:58.370Z,6.80
2018-07-21T12:22:01.923Z,6.87
2018-07-21T12:24:05.656Z,6.77
2018-07-21T12:26:09.321Z,6.57
2018-07-21T12:28:12.827Z,6.53
2018-07-21T12:30:16.323Z,6.80
2018-07-21T12:32:19.931Z,6.03
2018-07-21T12:34:23.503Z,6.73
2018-07-21T12:36:27.327Z,6.43
2018-07-21T12:38:30.956Z,5.97
2018-07-21T12:40:34.465Z,6.77
2018-07-21T12:42:38.047Z,6.73
2018-07-21T12:44:41.533Z,7.00
2018-07-21T12:46:45.081Z,6.47
2018-07-21T12:48:48.564Z,6.07
2018-07-21T12:50:52.130Z,5.93
2018-07-21T12:52:55.609Z,6.10
2018-07-21T12:54:59.181Z,5.40
2018-07-21T12:57:02.718Z,5.60
2018-07-21T12:59:06.338Z,5.33
2018-07-21T13:01:09.936Z,6.20
2018-07-21T13:03:14.351Z,5.97
2018-07-21T13:05:17.468Z,4.97
2018-07-21T13:07:20.986Z,6.77
2018-07-21T13:09:24.598Z,5.10
2018-07-21T13:11:28.124Z,5.17
2018-07-21T13:13:31.648Z,5.07
2018-07-21T13:15:35.247Z,5.10
2018-07-21T13:17:38.914Z,6.27
2018-07-21T13:19:42.470Z,5.93
2018-07-21T13:21:45.958Z,5.27
2018-07-21T13:23:49.553Z,6.70
2018-07-21T13:25:53.090Z,4.90
2018-07-21T13:27:56.744Z,5.57
2018-07-21T13:30:00.319Z,6.20
2018-07-21T13:32:03.935Z,5.43
2018-07-21T13:34:07.441Z,5.23
2018-07-21T13:36:10.982Z,5.17
2018-07-21T13:38:14.487Z,6.20
2018-07-21T13:40:17.997Z,4.70
2018-07-21T13:42:21.553Z,4.83
2018-07-21T13:44:25.157Z,5.67
2018-07-21T13:46:28.650Z,4.80
2018-07-21T13:48:31.823Z,5.27
2018-07-21T13:50:35.348Z,5.90
2018-07-21T13:52:38.872Z,6.13
2018-07-21T13:54:42.375Z,6.27
2018-07-21T13:56:45.964Z,6.03
2018-07-21T13:58:49.506Z,6.10
2018-07-21T14:00:53.063Z,4.97
2018-07-21T14:02:56.595Z,5.90
2018-07-21T14:05:00.153Z,5.80
2018-07-21T14:07:03.798Z,8.27
2018-07-21T14:09:08.785Z,4.97
2018-07-21T14:11:12.399Z,4.97
2018-07-21T14:13:15.934Z,5.00
2018-07-21T14:15:19.464Z,6.03
2018-07-21T14:17:23.012Z,6.60
2018-07-21T14:19:26.634Z,6.10
2018-07-21T14:21:30.200Z,5.53
2018-07-21T14:23:33.723Z,5.27
2018-07-21T14:25:37.221Z,5.80
2018-07-21T14:27:40.747Z,4.70
2018-07-21T14:29:44.373Z,6.13
2018-07-21T14:31:47.855Z,5.20
2018-07-21T14:33:51.432Z,5.03
2018-07-21T14:35:55.080Z,5.63
2018-07-21T14:37:58.596Z,6.40
2018-07-21T14:40:02.164Z,7.27
2018-07-21T14:42:05.396Z,5.90
2018-07-21T14:44:09.648Z,5.93
2018-07-21T14:46:13.143Z,5.60
2018-07-21T14:48:16.698Z,5.90
2018-07-21T14:50:20.276Z,5.70
2018-07-21T14:52:23.826Z,5.47
2018-07-21T14:54:27.397Z,6.17
2018-07-21T14:56:30.926Z,5.60
2018-07-21T14:58:34.471Z,4.47
2018-07-21T15:00:38.038Z,5.23
2018-07-21T15:02:41.581Z,5.23
2018-07-21T15:04:45.104Z,5.33
2018-07-21T15:06:48.752Z,5.10
2018-07-21T15:08:52.291Z,5.47
2018-07-21T15:10:55.815Z,4.80
2018-07-21T15:12:59.405Z,5.03
2018-07-21T15:15:03.083Z,6.40
2018-07-21T15:17:06.663Z,4.97
2018-07-21T15:19:10.211Z,5.87
2018-07-21T15:21:13.748Z,5.12
2018-07-21T15:23:17.331Z,4.87
2018-07-21T15:25:20.826Z,7.33
2018-07-21T15:27:24.347Z,5.20
2018-07-21T15:29:27.899Z,5.33
2018-07-21T15:31:31.528Z,7.30
2018-07-21T15:33:35.019Z,5.77
2018-07-21T15:35:38.524Z,4.57
2018-07-21T15:37:42.127Z,4.13
2018-07-21T15:39:45.749Z,4.87
2018-07-21T15:41:49.323Z,4.80
2018-07-21T15:43:52.904Z,4.70
2018-07-21T15:45:56.424Z,4.83
2018-07-21T15:47:59.908Z,5.23
2018-07-21T15:50:03.460Z,6.47
2018-07-21T15:52:07.063Z,5.40
2018-07-21T15:54:10.605Z,5.03
2018-07-21T15:56:14.150Z,6.07
2018-07-21T15:58:17.687Z,6.20
2018-07-21T16:00:21.159Z,5.37
2018-07-21T16:02:24.741Z,5.73
2018-07-21T16:04:28.263Z,5.13
2018-07-21T16:06:31.843Z,7.70
2018-07-21T16:08:35.464Z,4.17
2018-07-21T16:10:38.919Z,5.10
2018-07-21T16:12:42.446Z,4.57
2018-07-21T16:14:46.054Z,5.77
2018-07-21T16:16:49.559Z,4.63
2018-07-21T16:18:53.070Z,4.27
2018-07-21T16:20:56.619Z,4.93
2018-07-21T16:23:00.177Z,5.47
2018-07-21T16:25:03.909Z,6.10
2018-07-21T16:27:07.499Z,4.57
2018-07-21T16:29:10.745Z,4.20
2018-07-21T16:31:14.282Z,4.43
2018-07-21T16:35:49.975Z,4.47
2018-07-21T16:37:53.541Z,4.33
2018-07-21T16:39:57.205Z,4.57
2018-07-21T16:42:00.913Z,4.93
2018-07-21T16:44:04.537Z,6.20
2018-07-21T16:46:08.237Z,5.50
2018-07-21T16:48:11.854Z,5.73
2018-07-21T16:50:15.427Z,4.93
2018-07-21T16:52:19.056Z,6.63
2018-07-21T16:54:22.788Z,5.20
2018-07-21T16:56:26.392Z,5.50
2018-07-21T16:58:30.041Z,5.90
2018-07-21T17:00:33.736Z,5.83
2018-07-21T17:02:37.456Z,6.60
2018-07-21T17:04:41.087Z,6.60
2018-07-21T17:06:44.650Z,6.50
2018-07-21T17:08:48.232Z,6.30
2018-07-21T17:10:51.884Z,6.10
2018-07-21T17:12:55.435Z,8.17
2018-07-21T17:14:59.103Z,7.43
2018-07-21T17:17:02.729Z,7.87
2018-07-21T17:19:06.509Z,6.50
2018-07-21T17:21:10.248Z,6.50
2018-07-21T17:23:13.789Z,6.53
2018-07-21T17:25:17.525Z,6.97
2018-07-21T17:27:21.057Z,6.43
2018-07-21T17:29:24.714Z,6.40
2018-07-21T17:31:28.254Z,6.00
2018-07-21T17:33:32.016Z,6.93
2018-07-21T17:35:35.614Z,7.70
2018-07-21T17:37:39.250Z,6.50
2018-07-21T17:39:42.871Z,6.57
2018-07-21T17:41:46.432Z,7.73
2018-07-21T17:43:50.027Z,7.17
2018-07-21T17:45:53.670Z,7.17
2018-07-21T17:47:57.432Z,8.20
2018-07-21T17:50:01.040Z,6.53
2018-07-21T17:52:04.775Z,6.83
2018-07-21T17:54:08.411Z,7.13
2018-07-21T17:56:12.058Z,9.13
2018-07-21T17:58:15.654Z,9.17
2018-07-21T18:00:19.307Z,7.57
2018-07-21T18:02:22.873Z,9.07
2018-07-21T18:04:26.440Z,8.40
2018-07-21T18:06:30.020Z,9.80
2018-07-21T18:08:33.597Z,9.93
2018-07-21T18:10:37.609Z,10.60
2018-07-21T18:12:41.416Z,12.10
2018-07-21T18:14:44.948Z,9.37
2018-07-21T18:16:48.537Z,8.93
2018-07-21T18:18:54.990Z,9.37
2018-07-21T18:20:58.613Z,8.90
2018-07-21T18:23:02.179Z,9.03
2018-07-21T18:25:05.428Z,11.63
2018-07-21T18:27:09.019Z,9.30
2018-07-21T18:29:12.577Z,9.20
2018-07-21T18:31:16.212Z,9.70
2018-07-21T18:33:19.783Z,8.20
2018-07-21T18:35:23.364Z,10.63
2018-07-21T18:37:26.612Z,10.43
2018-07-21T18:39:30.159Z,10.50
2018-07-21T18:41:33.783Z,9.03
2018-07-21T18:43:37.506Z,9.83
2018-07-21T18:45:41.082Z,9.77
2018-07-21T18:47:44.653Z,9.20
2018-07-21T18:49:48.184Z,9.17
2018-07-21T18:51:51.970Z,9.93
2018-07-21T18:53:55.548Z,7.80
2018-07-21T18:55:59.220Z,9.87
2018-07-21T18:58:02.836Z,9.57
2018-07-21T19:00:06.474Z,9.53
2018-07-21T19:02:10.241Z,10.73
2018-07-21T19:04:13.803Z,9.73
2018-07-21T19:06:17.432Z,10.07
2018-07-21T19:08:24.731Z,9.60
2018-07-21T19:10:28.367Z,10.23
2018-07-21T19:12:37.201Z,10.90
2018-07-21T19:14:41.000Z,9.90
2018-07-21T19:16:44.643Z,10.57
2018-07-21T19:18:48.543Z,13.73
2018-07-21T19:20:57.635Z,10.47
2018-07-21T19:23:01.360Z,10.03
2018-07-21T19:25:10.331Z,11.93
2018-07-21T19:27:19.276Z,13.70
2018-07-21T19:29:22.955Z,9.37
2018-07-21T19:31:26.836Z,14.07
2018-07-21T19:33:30.379Z,11.77
2018-07-21T19:35:34.200Z,13.50
2018-07-21T19:37:43.272Z,14.73
2018-07-21T19:39:47.094Z,10.43
2018-07-21T19:41:56.442Z,11.43
2018-07-21T19:44:00.256Z,10.37
2018-07-21T19:46:03.929Z,12.50
2018-07-21T19:48:07.531Z,12.67
2018-07-21T19:50:11.189Z,10.23
2018-07-21T19:52:14.808Z,11.40
2018-07-21T19:54:18.387Z,10.90
2018-07-21T19:56:21.974Z,10.90
2018-07-21T19:58:25.832Z,12.07
2018-07-21T20:00:29.981Z,11.30
2018-07-21T20:02:34.173Z,11.57
2018-07-21T20:04:37.759Z,11.83
2018-07-21T20:06:41.335Z,11.37
2018-07-21T20:08:44.976Z,12.67
2018-07-21T20:10:48.662Z,10.23
2018-07-21T20:12:52.605Z,9.33
2018-07-21T20:14:56.260Z,10.20
2018-07-21T20:16:59.910Z,11.17
2018-07-21T20:19:03.529Z,10.33
2018-07-21T20:21:07.374Z,7.37
2018-07-21T20:23:10.991Z,7.63
2018-07-21T20:25:14.638Z,6.90
2018-07-21T20:27:18.306Z,7.37
2018-07-21T20:29:21.916Z,7.70
2018-07-21T20:31:25.683Z,5.77
2018-07-21T20:33:29.260Z,7.03
2018-07-21T20:35:32.831Z,6.53
2018-07-21T20:37:36.475Z,5.77
2018-07-21T20:39:40.225Z,5.00
2018-07-21T20:41:43.917Z,6.33
2018-07-21T20:43:47.532Z,5.33
2018-07-21T20:45:51.138Z,6.47
2018-07-21T20:47:54.527Z,6.33
2018-07-21T20:49:58.248Z,7.37
2018-07-21T20:52:01.916Z,6.00
2018-07-21T20:54:05.539Z,5.97
2018-07-21T20:56:09.150Z,6.77
2018-07-21T20:58:12.752Z,6.03
2018-07-21T21:00:16.421Z,7.77
2018-07-21T21:02:19.966Z,6.90
2018-07-21T21:04:23.571Z,7.00
2018-07-21T21:06:27.277Z,6.27
2018-07-21T21:08:30.534Z,7.33
2018-07-21T21:10:34.265Z,7.60
2018-07-21T21:12:37.952Z,8.60
2018-07-21T21:14:41.516Z,10.33
2018-07-21T21:16:45.143Z,8.20
2018-07-21T21:18:48.727Z,8.30
2018-07-21T21:20:52.512Z,8.27
2018-07-21T21:22:56.125Z,10.33
2018-07-21T21:24:59.800Z,8.47
2018-07-21T21:27:03.906Z,7.27
2018-07-21T21:29:08.027Z,9.63
2018-07-21T21:31:11.644Z,8.77
2018-07-21T21:33:15.197Z,10.97
2018-07-21T21:35:18.969Z,8.70
2018-07-21T21:37:24.761Z,8.63
2018-07-21T21:39:28.400Z,9.50
2018-07-21T21:41:32.156Z,9.23
2018-07-21T21:43:36.076Z,9.23
2018-07-21T21:45:39.678Z,10.97
2018-07-21T21:47:43.354Z,8.73
2018-07-21T21:49:47.007Z,9.30
2018-07-21T21:51:50.639Z,9.77
2018-07-21T21:53:54.329Z,9.03
2018-07-21T21:55:57.937Z,8.67
2018-07-21T21:58:01.520Z,10.30
2018-07-21T22:00:08.856Z,9.63
2018-07-21T22:02:12.615Z,9.07
2018-07-21T22:04:16.309Z,10.37
2018-07-21T22:06:19.805Z,9.20
2018-07-21T22:08:23.358Z,9.17
2018-07-21T22:10:26.926Z,11.37
2018-07-21T22:12:30.587Z,9.03
2018-07-21T22:14:39.806Z,10.17
2018-07-21T22:16:43.147Z,10.30
2018-07-21T22:18:46.876Z,10.47
2018-07-21T22:20:53.795Z,11.37
2018-07-21T22:23:00.742Z,11.03
2018-07-21T22:25:06.491Z,9.93
2018-07-21T22:27:10.975Z,10.97
2018-07-21T22:29:14.576Z,12.80
2018-07-21T22:31:18.155Z,13.47
2018-07-21T22:33:21.824Z,12.00
2018-07-21T22:35:25.365Z,12.63
2018-07-21T22:37:28.908Z,14.00
2018-07-21T22:39:32.610Z,12.30
2018-07-21T22:41:36.191Z,12.90
2018-07-21T22:43:40.328Z,12.53
2018-07-21T22:45:43.929Z,13.10
2018-07-21T22:47:47.957Z,13.40
2018-07-21T22:49:51.551Z,13.70
2018-07-21T22:51:55.188Z,13.20
2018-07-21T22:53:58.827Z,13.47
2018-07-21T22:56:02.448Z,13.00
2018-07-21T22:58:06.123Z,15.83
2018-07-21T23:00:09.915Z,15.00
2018-07-21T23:02:13.516Z,15.30
2018-07-21T23:04:17.100Z,14.07
2018-07-21T23:06:20.627Z,16.13
2018-07-21T23:08:24.231Z,15.37
2018-07-21T23:10:27.842Z,16.00
2018-07-21T23:12:31.371Z,14.53
2018-07-21T23:14:34.907Z,15.10
2018-07-21T23:16:38.588Z,16.03
2018-07-21T23:18:42.287Z,15.27
2018-07-21T23:20:45.931Z,15.43
2018-07-21T23:22:49.140Z,13.63
2018-07-21T23:24:52.741Z,13.40
2018-07-21T23:26:56.334Z,16.50
2018-07-21T23:28:59.877Z,15.47
2018-07-21T23:31:03.520Z,14.03
2018-07-21T23:33:07.090Z,14.27
2018-07-21T23:35:10.627Z,12.80
2018-07-21T23:37:14.289Z,12.90
2018-07-21T23:39:17.900Z,12.13
2018-07-21T23:41:21.476Z,15.67
2018-07-21T23:43:25.053Z,16.03
2018-07-21T23:45:28.782Z,16.80
2018-07-21T23:47:32.287Z,15.83
2018-07-21T23:49:35.812Z,18.00
2018-07-21T23:51:39.407Z,15.47
2018-07-21T23:53:43.050Z,14.47
2018-07-21T23:55:46.725Z,18.20
2018-07-21T23:57:50.372Z,16.93
2018-07-21T23:59:53.930Z,16.07
